createdAt,value
2018-09-03T00:00:08.502Z,0
2018-09-03T00:01:08.428Z,0
2018-09-03T00:02:08.405Z,0
2018-09-03T00:03:08.435Z,0
2018-09-03T00:04:08.406Z,0
2018-09-03T00:05:09.783Z,0
2018-09-03T00:06:08.423Z,0
2018-09-03T00:07:08.461Z,0
2018-09-03T00:08:08.468Z,0
2018-09-03T00:09:08.482Z,0
2018-09-03T00:10:08.462Z,0
2018-09-03T00:11:08.795Z,0
2018-09-03T00:12:08.395Z,0
2018-09-03T00:13:08.412Z,0
2018-09-03T00:14:08.414Z,0
2018-09-03T00:15:08.478Z,0
2018-09-03T00:16:08.487Z,0
2018-09-03T00:17:09.754Z,0
2018-09-03T00:18:08.474Z,0
2018-09-03T00:19:10.107Z,0
2018-09-03T00:20:09.214Z,0
2018-09-03T00:21:08.449Z,0
2018-09-03T00:22:08.494Z,0
2018-09-03T00:23:12.391Z,0
2018-09-03T00:24:23.351Z,0
2018-09-03T00:25:08.482Z,0
2018-09-03T00:26:08.477Z,0
2018-09-03T00:27:08.461Z,0
2018-09-03T00:28:08.529Z,0
2018-09-03T00:29:08.917Z,0
2018-09-03T00:30:08.609Z,0
2018-09-03T00:31:08.521Z,0
2018-09-03T00:32:08.456Z,0
2018-09-03T00:33:08.483Z,0
2018-09-03T00:34:08.487Z,0
2018-09-03T00:35:09.894Z,0
2018-09-03T00:36:08.513Z,0
2018-09-03T00:37:08.495Z,0
2018-09-03T00:38:08.499Z,0
2018-09-03T00:39:08.508Z,0
2018-09-03T00:40:08.505Z,0
2018-09-03T00:41:08.788Z,0
2018-09-03T00:42:08.485Z,0
2018-09-03T00:43:08.522Z,0
2018-09-03T00:44:08.471Z,0
2018-09-03T00:45:08.800Z,0
2018-09-03T00:46:08.486Z,0
2018-09-03T00:47:11.125Z,0
2018-09-03T00:48:09.427Z,0
2018-09-03T00:49:08.912Z,0
2018-09-03T00:50:08.510Z,0
2018-09-03T00:51:08.527Z,0
2018-09-03T00:52:08.569Z,0
2018-09-03T00:53:08.968Z,0
2018-09-03T00:54:08.507Z,0
2018-09-03T00:55:08.540Z,0
2018-09-03T00:56:08.530Z,0
2018-09-03T00:57:08.518Z,0
2018-09-03T00:58:08.576Z,0
2018-09-03T00:59:08.916Z,0
2018-09-03T01:00:08.504Z,0
2018-09-03T01:01:08.508Z,0
2018-09-03T01:02:08.515Z,0
2018-09-03T01:03:08.537Z,0
2018-09-03T01:04:08.585Z,0
2018-09-03T01:05:09.976Z,0
2018-09-03T01:06:08.544Z,0
2018-09-03T01:07:08.514Z,0
2018-09-03T01:08:08.665Z,0
2018-09-03T01:09:08.539Z,0
2018-09-03T01:10:08.536Z,0
2018-09-03T01:11:10.932Z,0
2018-09-03T01:12:08.528Z,0
2018-09-03T01:13:08.560Z,0
2018-09-03T01:14:08.529Z,0
2018-09-03T01:15:08.541Z,0
2018-09-03T01:16:08.578Z,0
2018-09-03T01:17:08.924Z,0
2018-09-03T01:18:08.585Z,0
2018-09-03T01:19:08.530Z,0
2018-09-03T01:20:08.537Z,0
2018-09-03T01:21:08.584Z,0
2018-09-03T01:22:08.542Z,0
2018-09-03T01:23:08.846Z,0
2018-09-03T01:24:08.698Z,0
2018-09-03T01:25:08.677Z,0
2018-09-03T01:26:08.541Z,0
2018-09-03T01:27:08.575Z,0
2018-09-03T01:30:18.121Z,0
2018-09-03T01:30:30.353Z,0
2018-09-03T01:31:30.361Z,0
2018-09-03T01:32:30.350Z,0
2018-09-03T01:33:30.664Z,0
2018-09-03T01:34:30.366Z,0
2018-09-03T01:35:30.756Z,0
2018-09-03T01:36:30.378Z,0
2018-09-03T01:37:30.350Z,0
2018-09-03T01:38:30.357Z,0
2018-09-03T01:39:30.362Z,0
2018-09-03T01:40:30.332Z,0
2018-09-03T01:41:31.706Z,0
2018-09-03T01:42:30.332Z,0
2018-09-03T01:43:30.371Z,0
2018-09-03T01:44:30.359Z,0
2018-09-03T01:45:30.371Z,0
2018-09-03T01:46:30.372Z,0
2018-09-03T01:47:31.746Z,0
2018-09-03T01:48:30.392Z,0
2018-09-03T01:49:30.369Z,0
2018-09-03T01:50:30.384Z,0
2018-09-03T01:51:30.359Z,0
2018-09-03T01:52:30.382Z,0
2018-09-03T01:53:30.761Z,0
2018-09-03T02:00:07.992Z,0
2018-09-03T02:00:20.197Z,0
2018-09-03T02:01:20.266Z,0
2018-09-03T02:02:20.173Z,0
2018-09-03T02:03:20.190Z,0
2018-09-03T02:04:20.409Z,0
2018-09-03T02:05:20.553Z,0
2018-09-03T02:06:20.238Z,0
2018-09-03T02:07:20.210Z,0
2018-09-03T02:08:20.280Z,0
2018-09-03T02:09:20.181Z,0
2018-09-03T02:10:20.238Z,0
2018-09-03T02:11:20.535Z,0
2018-09-03T02:12:20.235Z,0
2018-09-03T02:13:20.244Z,0
2018-09-03T02:14:20.213Z,0
2018-09-03T02:15:20.220Z,0
2018-09-03T02:16:20.191Z,0
2018-09-03T02:17:21.511Z,0
2018-09-03T02:18:20.212Z,0
2018-09-03T02:19:20.214Z,0
2018-09-03T02:20:20.219Z,0
2018-09-03T02:21:20.230Z,0
2018-09-03T02:22:20.203Z,0
2018-09-03T02:23:20.617Z,0
2018-09-03T02:24:20.219Z,0
2018-09-03T02:25:20.233Z,0
2018-09-03T02:26:20.278Z,0
2018-09-03T02:27:20.231Z,0
2018-09-03T02:28:20.237Z,0
2018-09-03T02:29:20.654Z,0
2018-09-03T02:30:20.220Z,0
2018-09-03T02:31:20.469Z,0
2018-09-03T02:32:20.231Z,0
2018-09-03T02:33:20.239Z,0
2018-09-03T02:34:20.213Z,0
2018-09-03T02:35:33.566Z,0
2018-09-03T02:36:20.240Z,0
2018-09-03T02:37:20.240Z,0
2018-09-03T02:38:20.248Z,0
2018-09-03T02:39:20.253Z,0
2018-09-03T02:40:20.225Z,0
2018-09-03T02:41:20.743Z,0
2018-09-03T02:42:20.242Z,0
2018-09-03T02:43:20.250Z,0
2018-09-03T02:44:20.259Z,0
2018-09-03T02:45:20.252Z,0
2018-09-03T02:46:20.270Z,0
2018-09-03T02:47:20.670Z,0
2018-09-03T02:48:20.290Z,0
2018-09-03T02:49:20.282Z,0
2018-09-03T02:50:20.253Z,0
2018-09-03T02:51:20.298Z,0
2018-09-03T02:52:20.263Z,0
2018-09-03T02:53:22.667Z,0
2018-09-03T02:54:20.353Z,0
2018-09-03T02:55:20.255Z,0
2018-09-03T02:56:20.286Z,0
2018-09-03T02:57:20.264Z,0
2018-09-03T02:58:20.263Z,0
2018-09-03T02:59:20.762Z,0
2018-09-03T03:00:20.294Z,0
2018-09-03T03:01:20.297Z,0
2018-09-03T03:02:20.294Z,0
2018-09-03T03:03:20.294Z,0
2018-09-03T03:04:20.319Z,0
2018-09-03T03:05:20.660Z,0
2018-09-03T03:06:20.281Z,0
2018-09-03T03:07:20.300Z,0
2018-09-03T03:08:20.335Z,0
2018-09-03T03:09:20.319Z,0
2018-09-03T03:16:47.740Z,0
2018-09-03T03:17:00.033Z,0
2018-09-03T03:18:00.020Z,0
2018-09-03T03:19:00.057Z,0
2018-09-03T03:20:00.029Z,0
2018-09-03T03:21:00.310Z,0
2018-09-03T03:22:00.013Z,0
2018-09-03T03:22:59.988Z,0
2018-09-03T03:23:59.992Z,0
2018-09-03T03:24:59.995Z,0
2018-09-03T03:26:00.035Z,0
2018-09-03T03:27:00.348Z,0
2018-09-03T03:28:00.014Z,0
2018-09-03T03:28:59.987Z,0
2018-09-03T03:29:59.992Z,0
2018-09-03T03:30:59.998Z,0
2018-09-03T03:32:00.005Z,0
2018-09-03T03:33:00.393Z,0
2018-09-03T03:34:00.131Z,0
2018-09-03T03:35:00.062Z,0
2018-09-03T03:36:00.042Z,0
2018-09-03T03:36:59.975Z,0
2018-09-03T03:37:59.977Z,0
2018-09-03T03:39:00.324Z,0
2018-09-03T03:40:00.030Z,0
2018-09-03T03:41:00.064Z,0
2018-09-03T03:42:00.010Z,0
2018-09-03T03:43:00.031Z,0
2018-09-03T03:43:59.991Z,0
2018-09-03T03:45:01.399Z,0
2018-09-03T03:46:00.005Z,0
2018-09-03T03:46:59.988Z,0
2018-09-03T03:48:00.023Z,0
2018-09-03T03:48:59.992Z,0
2018-09-03T03:50:00.069Z,0
2018-09-03T03:51:00.304Z,0
2018-09-03T03:52:00.003Z,0
2018-09-03T03:53:00.048Z,0
2018-09-03T03:54:00.417Z,0
2018-09-03T03:55:00.184Z,0
2018-09-03T03:56:00.033Z,0
2018-09-03T03:57:01.486Z,0
2018-09-03T03:58:00.039Z,0
2018-09-03T03:59:00.015Z,0
2018-09-03T04:00:00.053Z,0
2018-09-03T04:01:00.025Z,0
2018-09-03T04:01:59.873Z,0
2018-09-03T04:03:01.402Z,0
2018-09-03T04:04:00.101Z,0
2018-09-03T04:05:00.097Z,0
2018-09-03T04:06:00.061Z,0
2018-09-03T04:07:00.044Z,0
2018-09-03T04:08:00.059Z,0
2018-09-03T04:09:01.042Z,0
2018-09-03T04:10:00.095Z,0
2018-09-03T04:11:00.031Z,0
2018-09-03T04:12:00.034Z,0
2018-09-03T04:13:00.141Z,0
2018-09-03T04:14:00.114Z,0
2018-09-03T04:15:00.496Z,0
2018-09-03T04:16:00.055Z,0
2018-09-03T04:17:00.075Z,0
2018-09-03T04:18:00.075Z,0
2018-09-03T04:19:00.049Z,0
2018-09-03T04:20:00.087Z,0
2018-09-03T04:21:00.397Z,0
2018-09-03T04:22:00.058Z,0
2018-09-03T04:23:00.312Z,0
2018-09-03T04:24:00.117Z,0
2018-09-03T04:25:00.080Z,0
2018-09-03T04:26:00.020Z,0
2018-09-03T04:27:01.458Z,0
2018-09-03T04:28:00.066Z,4
2018-09-03T04:29:00.207Z,4
2018-09-03T04:30:00.097Z,0
2018-09-03T04:31:00.088Z,0
2018-09-03T04:32:00.093Z,0
2018-09-03T04:33:00.066Z,0
2018-09-03T04:34:00.144Z,4
2018-09-03T04:35:00.110Z,4
2018-09-03T04:36:00.154Z,4
2018-09-03T04:37:00.130Z,4
2018-09-03T04:38:00.119Z,0
2018-09-03T04:39:00.523Z,4
2018-09-03T04:40:00.113Z,4
2018-09-03T04:41:00.083Z,4
2018-09-03T04:42:00.124Z,4
2018-09-03T04:43:00.114Z,4
2018-09-03T04:44:00.139Z,4
2018-09-03T04:45:00.552Z,4
2018-09-03T04:46:00.082Z,8
2018-09-03T04:47:00.119Z,4
2018-09-03T04:48:00.203Z,8
2018-09-03T04:49:00.082Z,4
2018-09-03T04:50:00.178Z,8
2018-09-03T04:51:00.431Z,8
2018-09-03T04:52:00.091Z,8
2018-09-03T04:53:00.111Z,12
2018-09-03T04:54:00.101Z,12
2018-09-03T04:55:00.121Z,8
2018-09-03T04:56:00.084Z,12
2018-09-03T04:57:00.535Z,12
2018-09-03T04:58:00.158Z,12
2018-09-03T04:59:00.153Z,16
2018-09-03T05:00:00.111Z,12
2018-09-03T05:01:00.147Z,12
2018-09-03T05:02:00.155Z,16
2018-09-03T05:03:00.468Z,16
2018-09-03T05:04:00.174Z,20
2018-09-03T05:05:00.241Z,16
2018-09-03T05:06:00.296Z,16
2018-09-03T05:07:00.188Z,20
2018-09-03T05:08:00.102Z,20
2018-09-03T05:09:00.510Z,24
2018-09-03T05:10:00.144Z,24
2018-09-03T05:11:00.185Z,20
2018-09-03T05:12:00.227Z,24
2018-09-03T05:13:00.176Z,28
2018-09-03T05:14:00.229Z,28
2018-09-03T05:15:00.545Z,28
2018-09-03T05:16:00.140Z,32
2018-09-03T05:17:00.161Z,32
2018-09-03T05:18:00.160Z,36
2018-09-03T05:19:00.210Z,36
2018-09-03T05:20:01.616Z,40
2018-09-03T05:21:00.486Z,40
2018-09-03T05:22:00.149Z,40
2018-09-03T05:23:00.153Z,48
2018-09-03T05:24:00.145Z,48
2018-09-03T05:25:00.209Z,48
2018-09-03T05:26:00.172Z,44
2018-09-03T05:27:02.567Z,40
2018-09-03T05:28:00.154Z,40
2018-09-03T05:29:00.193Z,32
2018-09-03T05:30:00.247Z,32
2018-09-03T05:31:00.531Z,28
2018-09-03T05:32:00.194Z,28
2018-09-03T05:33:00.668Z,32
2018-09-03T05:34:00.130Z,32
2018-09-03T05:35:00.196Z,36
2018-09-03T05:36:00.228Z,36
2018-09-03T05:37:00.197Z,40
2018-09-03T05:38:00.291Z,44
2018-09-03T05:39:00.540Z,48
2018-09-03T05:40:00.510Z,52
2018-09-03T05:41:00.204Z,52
2018-09-03T05:42:00.245Z,56
2018-09-03T05:43:00.446Z,60
2018-09-03T05:44:00.333Z,64
2018-09-03T05:45:03.435Z,68
2018-09-03T05:46:00.241Z,72
2018-09-03T05:47:01.459Z,72
2018-09-03T05:48:00.194Z,76
2018-09-03T05:49:00.561Z,76
2018-09-03T05:50:00.259Z,76
2018-09-03T05:51:00.575Z,72
2018-09-03T05:52:00.186Z,72
2018-09-03T05:53:00.201Z,68
2018-09-03T05:54:00.217Z,68
2018-09-03T05:55:00.226Z,60
2018-09-03T05:56:00.232Z,52
2018-09-03T05:57:01.539Z,52
2018-09-03T05:58:00.569Z,52
2018-09-03T05:59:00.242Z,52
2018-09-03T06:00:00.226Z,52
2018-09-03T06:01:00.857Z,56
2018-09-03T06:02:00.281Z,56
2018-09-03T06:03:00.694Z,56
2018-09-03T06:04:00.284Z,56
2018-09-03T06:05:00.451Z,56
2018-09-03T06:06:01.669Z,52
2018-09-03T06:07:03.454Z,52
2018-09-03T06:08:00.240Z,52
2018-09-03T06:09:01.633Z,60
2018-09-03T06:10:00.297Z,64
2018-09-03T06:11:00.326Z,72
2018-09-03T06:16:17.553Z,72
2018-09-03T06:16:29.834Z,68
2018-09-03T06:17:31.426Z,64
2018-09-03T06:18:30.628Z,60
2018-09-03T06:19:29.825Z,52
2018-09-03T06:20:29.896Z,52
2018-09-03T06:21:29.854Z,48
2018-09-03T06:22:30.171Z,44
2018-09-03T06:23:29.866Z,48
2018-09-03T06:24:29.821Z,44
2018-09-03T06:25:29.818Z,40
2018-09-03T06:26:29.816Z,36
2018-09-03T06:27:29.826Z,36
2018-09-03T06:28:30.207Z,32
2018-09-03T06:29:29.848Z,32
2018-09-03T06:30:29.861Z,32
2018-09-03T06:31:29.885Z,36
2018-09-03T06:32:29.826Z,36
2018-09-03T06:33:29.834Z,36
2018-09-03T06:34:30.147Z,36
2018-09-03T06:35:29.841Z,36
2018-09-03T06:36:29.857Z,36
2018-09-03T06:37:29.816Z,36
2018-09-03T06:38:29.859Z,36
2018-09-03T06:39:29.810Z,36
2018-09-03T06:40:30.181Z,32
2018-09-03T06:41:29.889Z,36
2018-09-03T06:42:29.826Z,36
2018-09-03T06:43:29.934Z,36
2018-09-03T06:44:29.833Z,40
2018-09-03T06:45:29.955Z,40
2018-09-03T06:46:30.219Z,48
2018-09-03T06:47:30.194Z,48
2018-09-03T06:48:29.838Z,56
2018-09-03T06:49:29.867Z,60
2018-09-03T06:50:29.837Z,64
2018-09-03T06:51:29.861Z,68
2018-09-03T06:52:31.208Z,72
2018-09-03T06:53:30.026Z,76
2018-09-03T06:54:29.896Z,84
2018-09-03T06:55:29.942Z,92
2018-09-03T06:56:29.886Z,96
2018-09-03T06:57:29.925Z,104
2018-09-03T06:58:30.303Z,112
2018-09-03T06:59:29.959Z,116
2018-09-03T07:00:29.880Z,120
2018-09-03T07:01:29.910Z,116
2018-09-03T07:02:29.951Z,124
2018-09-03T07:03:29.855Z,132
2018-09-03T07:04:30.246Z,140
2018-09-03T07:05:29.938Z,156
2018-09-03T07:06:29.915Z,168
2018-09-03T07:07:29.884Z,180
2018-09-03T07:08:29.917Z,196
2018-09-03T07:09:29.909Z,208
2018-09-03T07:10:30.281Z,216
2018-09-03T07:11:29.996Z,228
2018-09-03T07:12:29.897Z,228
2018-09-03T07:13:29.886Z,220
2018-09-03T07:14:29.905Z,208
2018-09-03T07:15:29.970Z,200
2018-09-03T07:16:32.259Z,196
2018-09-03T07:17:31.684Z,196
2018-09-03T07:18:29.930Z,208
2018-09-03T07:19:29.898Z,216
2018-09-03T07:20:30.011Z,224
2018-09-03T07:21:29.948Z,228
2018-09-03T07:22:30.352Z,232
2018-09-03T07:23:29.933Z,232
2018-09-03T07:24:29.918Z,232
2018-09-03T07:25:30.135Z,228
2018-09-03T07:26:29.898Z,224
2018-09-03T07:27:29.946Z,220
2018-09-03T07:28:30.394Z,216
2018-09-03T07:29:29.954Z,216
2018-09-03T07:30:29.985Z,216
2018-09-03T07:31:29.955Z,216
2018-09-03T07:32:29.914Z,220
2018-09-03T07:33:29.953Z,228
2018-09-03T07:34:31.294Z,240
2018-09-03T07:35:29.957Z,256
2018-09-03T07:36:29.934Z,272
2018-09-03T07:37:29.921Z,280
2018-09-03T07:38:29.960Z,284
2018-09-03T07:39:30.025Z,292
2018-09-03T07:40:31.291Z,296
2018-09-03T07:41:29.971Z,296
2018-09-03T07:42:29.956Z,296
2018-09-03T07:43:29.948Z,296
2018-09-03T07:44:29.924Z,296
2018-09-03T07:45:29.993Z,276
2018-09-03T07:46:30.307Z,232
2018-09-03T07:47:29.990Z,204
2018-09-03T07:48:30.529Z,180
2018-09-03T07:49:30.617Z,164
2018-09-03T07:50:31.161Z,156
2018-09-03T07:51:30.499Z,160
2018-09-03T07:52:30.953Z,184
2018-09-03T07:53:29.945Z,212
2018-09-03T07:54:29.950Z,224
2018-09-03T07:55:30.054Z,232
2018-09-03T07:56:30.008Z,240
2018-09-03T07:57:29.966Z,236
2018-09-03T07:58:30.382Z,212
2018-09-03T07:59:29.986Z,188
2018-09-03T08:00:30.020Z,168
2018-09-03T08:01:30.067Z,160
2018-09-03T08:02:29.976Z,164
2018-09-03T08:03:29.980Z,160
2018-09-03T08:04:31.350Z,164
2018-09-03T08:05:30.054Z,172
2018-09-03T08:06:30.078Z,184
2018-09-03T08:07:30.159Z,184
2018-09-03T08:08:29.973Z,184
2018-09-03T08:09:30.050Z,172
2018-09-03T08:10:30.359Z,156
2018-09-03T08:11:30.022Z,140
2018-09-03T08:12:30.993Z,140
2018-09-03T08:13:30.001Z,140
2018-09-03T08:14:30.021Z,144
2018-09-03T08:15:30.117Z,160
2018-09-03T08:16:31.454Z,172
2018-09-03T08:17:30.412Z,176
2018-09-03T08:18:29.887Z,172
2018-09-03T08:19:30.146Z,176
2018-09-03T08:20:30.529Z,176
2018-09-03T08:21:30.093Z,184
2018-09-03T08:22:30.339Z,188
2018-09-03T08:23:30.074Z,180
2018-09-03T08:24:30.111Z,176
2018-09-03T08:25:30.387Z,172
2018-09-03T08:26:30.060Z,168
2018-09-03T08:27:29.975Z,168
2018-09-03T08:28:30.384Z,176
2018-09-03T08:29:30.620Z,188
2018-09-03T08:30:30.084Z,200
2018-09-03T08:31:30.029Z,208
2018-09-03T08:32:30.036Z,216
2018-09-03T08:33:30.207Z,216
2018-09-03T08:34:30.420Z,220
2018-09-03T08:35:30.119Z,212
2018-09-03T08:36:30.052Z,220
2018-09-03T08:37:30.076Z,220
2018-09-03T08:38:30.042Z,216
2018-09-03T08:39:30.047Z,228
2018-09-03T08:40:30.567Z,248
2018-09-03T08:41:30.172Z,256
2018-09-03T08:42:30.168Z,268
2018-09-03T08:43:30.135Z,272
2018-09-03T08:44:30.104Z,284
2018-09-03T08:45:30.827Z,296
2018-09-03T08:46:31.420Z,308
2018-09-03T08:47:30.073Z,328
2018-09-03T08:48:30.300Z,368
2018-09-03T08:49:30.063Z,404
2018-09-03T08:50:30.383Z,412
2018-09-03T08:51:30.048Z,416
2018-09-03T08:52:30.439Z,416
2018-09-03T08:53:30.047Z,404
2018-09-03T08:54:30.145Z,372
2018-09-03T08:55:30.107Z,344
2018-09-03T08:57:34.662Z,296
2018-09-03T08:57:47.314Z,292
2018-09-03T08:58:47.683Z,272
2018-09-03T08:59:47.235Z,252
2018-09-03T09:00:47.308Z,240
2018-09-03T09:01:47.332Z,236
2018-09-03T09:02:47.668Z,244
2018-09-03T09:03:47.261Z,256
2018-09-03T09:04:47.239Z,272
2018-09-03T09:05:47.431Z,272
2018-09-03T09:06:47.248Z,268
2018-09-03T09:07:47.255Z,276
2018-09-03T09:08:47.297Z,276
2018-09-03T09:09:51.332Z,276
2018-09-03T09:10:47.242Z,292
2018-09-03T09:11:47.482Z,288
2018-09-03T09:12:47.252Z,292
2018-09-03T09:13:47.339Z,300
2018-09-03T09:14:47.375Z,296
2018-09-03T09:16:47.278Z,308
2018-09-03T09:17:47.425Z,324
2018-09-03T09:18:47.304Z,360
2018-09-03T09:19:47.298Z,396
2018-09-03T09:20:47.731Z,420
2018-09-03T09:21:47.621Z,420
2018-09-03T09:22:47.256Z,424
2018-09-03T09:28:04.041Z,440
2018-09-03T09:28:16.749Z,448
2018-09-03T09:29:16.376Z,484
2018-09-03T09:30:16.347Z,544
2018-09-03T09:31:16.266Z,576
2018-09-03T09:32:16.257Z,560
2018-09-03T09:33:16.291Z,560
2018-09-03T09:34:16.549Z,568
2018-09-03T09:35:16.280Z,564
2018-09-03T09:36:16.314Z,544
2018-09-03T09:37:16.284Z,508
2018-09-03T09:38:16.357Z,492
2018-09-03T09:39:16.284Z,512
2018-09-03T09:40:17.639Z,508
2018-09-03T09:41:16.243Z,504
2018-09-03T09:42:16.247Z,476
2018-09-03T09:43:16.496Z,440
2018-09-03T09:44:16.292Z,388
2018-09-03T09:45:16.265Z,344
2018-09-03T09:46:16.661Z,316
2018-09-03T09:47:16.287Z,308
2018-09-03T09:48:16.299Z,316
2018-09-03T09:49:16.295Z,308
2018-09-03T09:50:16.345Z,292
2018-09-03T09:51:16.413Z,280
2018-09-03T09:52:16.693Z,256
2018-09-03T09:53:16.321Z,244
2018-09-03T09:54:16.332Z,236
2018-09-03T09:55:16.421Z,228
2018-09-03T09:59:45.964Z,232
2018-09-03T10:00:45.932Z,220
2018-09-03T10:01:45.915Z,204
2018-09-03T10:02:46.589Z,192
2018-09-03T10:03:47.383Z,176
2018-09-03T10:04:45.967Z,180
2018-09-03T10:05:46.021Z,180
2018-09-03T10:06:45.933Z,184
2018-09-03T10:07:45.940Z,184
2018-09-03T10:08:45.944Z,196
2018-09-03T10:09:47.356Z,208
2018-09-03T10:10:45.955Z,216
2018-09-03T10:11:45.973Z,220
2018-09-03T10:12:45.955Z,212
2018-09-03T10:13:45.949Z,204
2018-09-03T10:14:45.922Z,192
2018-09-03T10:15:50.870Z,188
2018-09-03T10:16:46.131Z,200
2018-09-03T10:17:45.904Z,216
2018-09-03T10:18:45.973Z,228
2018-09-03T10:19:46.598Z,232
2018-09-03T10:20:45.999Z,236
2018-09-03T10:21:46.307Z,236
2018-09-03T10:22:45.942Z,228
2018-09-03T10:23:45.957Z,232
2018-09-03T10:24:45.966Z,248
2018-09-03T10:25:45.923Z,256
2018-09-03T10:26:45.934Z,260
2018-09-03T10:27:46.314Z,256
2018-09-03T10:28:45.947Z,264
2018-09-03T10:29:45.951Z,272
2018-09-03T10:30:45.917Z,280
2018-09-03T10:31:46.828Z,272
2018-09-03T10:32:47.198Z,256
2018-09-03T10:33:49.009Z,244
2018-09-03T10:34:46.285Z,244
2018-09-03T10:35:46.777Z,236
2018-09-03T10:36:45.920Z,220
2018-09-03T10:37:46.079Z,208
2018-09-03T10:38:46.137Z,204
2018-09-03T10:39:48.347Z,216
2018-09-03T10:40:45.997Z,236
2018-09-03T10:41:45.930Z,260
2018-09-03T10:42:45.960Z,280
2018-09-03T10:43:45.968Z,292
2018-09-03T10:44:46.012Z,296
2018-09-03T10:47:53.312Z,292
2018-09-03T10:48:05.544Z,284
2018-09-03T10:49:08.357Z,296
2018-09-03T10:50:05.530Z,292
2018-09-03T10:51:05.617Z,292
2018-09-03T10:52:05.511Z,300
2018-09-03T10:53:05.530Z,308
2018-09-03T10:54:05.528Z,304
2018-09-03T10:55:05.576Z,288
2018-09-03T10:56:05.651Z,276
2018-09-03T10:57:06.940Z,276
2018-09-03T10:58:05.524Z,264
2018-09-03T10:59:05.599Z,252
2018-09-03T11:00:05.562Z,252
2018-09-03T11:01:05.515Z,248
2018-09-03T11:02:05.598Z,248
2018-09-03T11:03:06.952Z,252
2018-09-03T11:04:05.567Z,252
2018-09-03T11:09:23.686Z,332
2018-09-03T11:09:39.891Z,324
2018-09-03T11:10:35.972Z,304
2018-09-03T11:11:35.913Z,284
2018-09-03T11:12:35.931Z,288
2018-09-03T11:13:35.966Z,312
2018-09-03T11:14:35.899Z,344
2018-09-03T11:15:36.312Z,380
2018-09-03T11:16:35.910Z,396
2018-09-03T11:17:36.003Z,416
2018-09-03T11:18:35.893Z,420
2018-09-03T11:19:35.895Z,400
2018-09-03T11:20:36.043Z,376
2018-09-03T11:21:37.584Z,376
2018-09-03T11:22:36.071Z,412
2018-09-03T11:23:36.011Z,452
2018-09-03T11:24:36.041Z,468
2018-09-03T11:25:35.980Z,468
2018-09-03T11:26:36.009Z,456
2018-09-03T11:27:37.288Z,420
2018-09-03T11:28:36.087Z,380
2018-09-03T11:29:36.005Z,336
2018-09-03T11:30:35.937Z,328
2018-09-03T11:31:35.987Z,332
2018-09-03T11:32:35.982Z,336
2018-09-03T11:33:36.410Z,344
2018-09-03T11:34:35.924Z,356
2018-09-03T11:35:35.911Z,364
2018-09-03T11:36:36.088Z,368
2018-09-03T11:37:35.976Z,356
2018-09-03T11:38:36.034Z,348
2018-09-03T11:39:35.937Z,340
2018-09-03T11:40:35.963Z,328
2018-09-03T11:41:35.977Z,332
2018-09-03T11:42:36.019Z,332
2018-09-03T11:43:36.005Z,340
2018-09-03T11:44:37.399Z,352
2018-09-03T11:45:35.997Z,356
2018-09-03T11:46:36.010Z,344
2018-09-03T11:47:36.009Z,328
2018-09-03T11:48:36.041Z,312
2018-09-03T11:49:36.028Z,300
2018-09-03T11:50:36.304Z,288
2018-09-03T11:51:35.982Z,292
2018-09-03T11:52:36.055Z,300
2018-09-03T11:53:36.017Z,308
2018-09-03T11:54:36.174Z,316
2018-09-03T11:55:36.003Z,316
2018-09-03T11:56:36.346Z,312
2018-09-03T11:57:36.055Z,312
2018-09-03T11:58:35.977Z,316
2018-09-03T11:59:36.071Z,320
2018-09-03T12:00:36.267Z,324
2018-09-03T12:01:35.970Z,328
2018-09-03T12:02:36.383Z,336
2018-09-03T12:03:35.984Z,332
2018-09-03T12:10:14.964Z,364
2018-09-03T12:11:14.916Z,380
2018-09-03T12:12:15.082Z,412
2018-09-03T12:13:14.914Z,452
2018-09-03T12:14:14.925Z,500
2018-09-03T12:15:15.247Z,532
2018-09-03T12:16:15.005Z,540
2018-09-03T12:17:14.907Z,564
2018-09-03T12:18:15.478Z,484
2018-09-03T12:19:14.889Z,428
2018-09-03T12:20:14.936Z,444
2018-09-03T12:21:16.595Z,460
2018-09-03T12:22:14.925Z,460
2018-09-03T12:23:14.986Z,444
2018-09-03T12:24:14.937Z,424
2018-09-03T12:25:14.933Z,400
2018-09-03T12:26:14.939Z,396
2018-09-03T12:27:15.354Z,388
2018-09-03T12:28:14.953Z,380
2018-09-03T12:29:14.964Z,368
2018-09-03T12:30:14.900Z,348
2018-09-03T12:31:15.069Z,328
2018-09-03T12:32:14.956Z,312
2018-09-03T12:33:17.373Z,300
2018-09-03T12:34:14.960Z,296
2018-09-03T12:35:14.975Z,288
2018-09-03T12:36:14.942Z,272
2018-09-03T12:37:15.040Z,260
2018-09-03T12:38:14.953Z,256
2018-09-03T12:39:15.324Z,260
2018-09-03T12:40:14.964Z,264
2018-09-03T12:41:14.971Z,260
2018-09-03T12:42:14.978Z,256
2018-09-03T12:43:14.979Z,252
2018-09-03T12:44:15.123Z,252
2018-09-03T12:45:15.372Z,260
2018-09-03T12:46:15.032Z,272
2018-09-03T12:47:14.967Z,284
2018-09-03T12:48:15.008Z,292
2018-09-03T12:49:14.986Z,304
2018-09-03T12:50:15.142Z,328
2018-09-03T12:51:15.428Z,380
2018-09-03T12:52:14.964Z,440
2018-09-03T12:53:14.977Z,480
2018-09-03T12:54:15.091Z,504
2018-09-03T12:55:15.029Z,504
2018-09-03T12:56:14.975Z,568
2018-09-03T12:57:15.342Z,468
2018-09-03T12:58:14.970Z,424
2018-09-03T12:59:15.055Z,412
2018-09-03T13:00:14.990Z,404
2018-09-03T13:01:14.960Z,392
2018-09-03T13:02:14.972Z,388
2018-09-03T13:03:15.550Z,392
2018-09-03T13:04:15.032Z,420
2018-09-03T13:05:15.015Z,436
2018-09-03T13:06:15.212Z,440
2018-09-03T13:07:15.008Z,440
2018-09-03T13:08:15.009Z,392
2018-09-03T13:09:15.316Z,368
2018-09-03T13:10:14.995Z,356
2018-09-03T13:11:15.056Z,340
2018-09-03T13:12:14.962Z,332
2018-09-03T13:13:15.018Z,340
2018-09-03T13:14:14.989Z,368
2018-09-03T13:15:15.338Z,380
2018-09-03T13:16:15.054Z,384
2018-09-03T13:17:15.076Z,376
2018-09-03T13:18:15.031Z,364
2018-09-03T13:19:15.105Z,360
2018-09-03T13:20:15.044Z,356
2018-09-03T13:21:15.396Z,364
2018-09-03T13:22:15.130Z,380
2018-09-03T13:23:22.186Z,412
2018-09-03T13:24:25.747Z,444
2018-09-03T13:25:18.371Z,520
2018-09-03T13:26:16.821Z,440
2018-09-03T13:27:18.232Z,424
2018-09-03T13:28:16.929Z,408
2018-09-03T13:29:16.799Z,388
2018-09-03T13:30:16.997Z,376
2018-09-03T13:31:16.959Z,364
2018-09-03T13:32:17.041Z,376
2018-09-03T13:33:17.306Z,384
2018-09-03T13:34:16.939Z,396
2018-09-03T13:35:16.857Z,428
2018-09-03T13:36:16.966Z,432
2018-09-03T13:37:15.934Z,420
2018-09-03T13:38:15.875Z,404
2018-09-03T13:39:16.268Z,392
2018-09-03T13:40:15.851Z,376
2018-09-03T13:41:15.872Z,364
2018-09-03T13:42:16.070Z,364
2018-09-03T13:43:15.978Z,364
2018-09-03T13:44:15.845Z,372
2018-09-03T13:45:16.265Z,384
2018-09-03T13:46:15.044Z,388
2018-09-03T13:47:15.187Z,376
2018-09-03T13:48:15.147Z,344
2018-09-03T13:49:15.068Z,324
2018-09-03T13:50:15.086Z,312
2018-09-03T13:51:15.394Z,308
2018-09-03T13:52:15.087Z,304
2018-09-03T13:53:15.095Z,300
2018-09-03T13:54:15.108Z,292
2018-09-03T13:55:15.286Z,292
2018-09-03T13:56:15.093Z,308
2018-09-03T13:57:15.424Z,324
2018-09-03T13:58:15.089Z,344
2018-09-03T13:59:15.066Z,368
2018-09-03T14:00:15.115Z,384
2018-09-03T14:01:15.116Z,400
2018-09-03T14:02:15.086Z,416
2018-09-03T14:03:15.466Z,428
2018-09-03T14:04:15.165Z,440
2018-09-03T14:09:33.136Z,412
2018-09-03T14:09:45.556Z,412
2018-09-03T14:10:45.389Z,400
2018-09-03T14:11:45.454Z,388
2018-09-03T14:12:45.367Z,376
2018-09-03T14:13:45.435Z,368
2018-09-03T14:14:47.796Z,356
2018-09-03T14:15:45.520Z,356
2018-09-03T14:16:45.420Z,356
2018-09-03T14:17:45.371Z,360
2018-09-03T14:18:45.399Z,364
2018-09-03T14:19:45.449Z,380
2018-09-03T14:20:45.793Z,404
2018-09-03T14:21:45.416Z,440
2018-09-03T14:22:45.392Z,552
2018-09-03T14:23:45.461Z,620
2018-09-03T14:24:45.464Z,804
2018-09-03T14:25:45.458Z,468
2018-09-03T14:26:45.663Z,416
2018-09-03T14:27:45.432Z,388
2018-09-03T14:28:45.640Z,372
2018-09-03T14:29:45.435Z,352
2018-09-03T14:30:45.440Z,332
2018-09-03T14:31:45.463Z,324
2018-09-03T14:32:45.763Z,324
2018-09-03T14:33:45.465Z,316
2018-09-03T14:34:45.501Z,308
2018-09-03T14:35:45.385Z,300
2018-09-03T14:36:45.394Z,292
2018-09-03T14:37:45.456Z,292
2018-09-03T14:38:45.820Z,300
2018-09-03T14:39:45.428Z,344
2018-09-03T14:40:45.417Z,456
2018-09-03T14:41:45.410Z,444
2018-09-03T14:42:45.672Z,712
2018-09-03T14:43:45.473Z,748
2018-09-03T14:44:48.913Z,840
2018-09-03T14:45:45.435Z,800
2018-09-03T14:46:45.442Z,800